sensor_id;sensor_type;location;lat;lon;timestamp;P1;durP1;ratioP1;P2;durP2;ratioP2
9898;SDS011;4988;49.238;6.698;2024-03-02T00:00:34;4.87;;;3.27;;
9898;SDS011;4988;49.238;6.698;2024-03-02T00:02:59;4.63;;;3.03;;
9898;SDS011;4988;49.238;6.698;2024-03-02T00:05:24;4.43;;;2.80;;
9898;SDS011;4988;49.238;6.698;2024-03-02T00:07:54;5.00;;;2.83;;
9898;SDS011;4988;49.238;6.698;2024-03-02T00:10:21;4.67;;;3.33;;
9898;SDS011;4988;49.238;6.698;2024-03-02T00:12:53;5.40;;;2.90;;
9898;SDS011;4988;49.238;6.698;2024-03-02T00:18:12;4.33;;;2.90;;
9898;SDS011;4988;49.238;6.698;2024-03-02T00:20:39;4.20;;;3.53;;
9898;SDS011;4988;49.238;6.698;2024-03-02T00:23:06;3.33;;;2.70;;
9898;SDS011;4988;49.238;6.698;2024-03-02T00:28:16;5.07;;;3.10;;
9898;SDS011;4988;49.238;6.698;2024-03-02T00:30:57;4.40;;;3.10;;
9898;SDS011;4988;49.238;6.698;2024-03-02T00:33:33;7.20;;;2.87;;
9898;SDS011;4988;49.238;6.698;2024-03-02T00:36:05;5.13;;;3.30;;
9898;SDS011;4988;49.238;6.698;2024-03-02T00:38:31;3.53;;;2.90;;
9898;SDS011;4988;49.238;6.698;2024-03-02T00:41:04;4.47;;;3.07;;
9898;SDS011;4988;49.238;6.698;2024-03-02T00:43:41;9.53;;;3.50;;
9898;SDS011;4988;49.238;6.698;2024-03-02T00:46:13;3.93;;;3.10;;
9898;SDS011;4988;49.238;6.698;2024-03-02T00:48:47;4.03;;;3.00;;
9898;SDS011;4988;49.238;6.698;2024-03-02T00:51:16;3.53;;;2.70;;
9898;SDS011;4988;49.238;6.698;2024-03-02T00:53:41;4.43;;;2.80;;
9898;SDS011;4988;49.238;6.698;2024-03-02T00:56:08;5.50;;;3.43;;
9898;SDS011;4988;49.238;6.698;2024-03-02T00:58:35;5.90;;;3.37;;
9898;SDS011;4988;49.238;6.698;2024-03-02T01:01:01;4.80;;;2.83;;
9898;SDS011;4988;49.238;6.698;2024-03-02T01:03:26;4.20;;;2.90;;
9898;SDS011;4988;49.238;6.698;2024-03-02T01:05:52;5.03;;;3.00;;
9898;SDS011;4988;49.238;6.698;2024-03-02T01:08:17;3.67;;;2.90;;
9898;SDS011;4988;49.238;6.698;2024-03-02T01:10:43;5.07;;;2.83;;
9898;SDS011;4988;49.238;6.698;2024-03-02T01:13:08;4.90;;;2.90;;
9898;SDS011;4988;49.238;6.698;2024-03-02T01:15:34;3.53;;;2.93;;
9898;SDS011;4988;49.238;6.698;2024-03-02T01:17:59;3.53;;;2.73;;
9898;SDS011;4988;49.238;6.698;2024-03-02T01:20:25;4.17;;;2.60;;
9898;SDS011;4988;49.238;6.698;2024-03-02T01:22:50;3.53;;;2.60;;
9898;SDS011;4988;49.238;6.698;2024-03-02T01:25:15;4.20;;;2.60;;
9898;SDS011;4988;49.238;6.698;2024-03-02T01:27:41;3.00;;;2.70;;
9898;SDS011;4988;49.238;6.698;2024-03-02T01:30:06;4.47;;;2.67;;
9898;SDS011;4988;49.238;6.698;2024-03-02T01:32:32;3.10;;;2.37;;
9898;SDS011;4988;49.238;6.698;2024-03-02T01:34:57;5.00;;;2.60;;
9898;SDS011;4988;49.238;6.698;2024-03-02T01:37:23;4.60;;;3.27;;
9898;SDS011;4988;49.238;6.698;2024-03-02T01:39:48;4.33;;;3.00;;
9898;SDS011;4988;49.238;6.698;2024-03-02T01:42:13;3.87;;;2.70;;
9898;SDS011;4988;49.238;6.698;2024-03-02T01:44:39;3.67;;;2.67;;
9898;SDS011;4988;49.238;6.698;2024-03-02T01:47:05;3.70;;;2.63;;
9898;SDS011;4988;49.238;6.698;2024-03-02T01:49:30;4.67;;;2.60;;
9898;SDS011;4988;49.238;6.698;2024-03-02T01:51:57;4.77;;;3.07;;
9898;SDS011;4988;49.238;6.698;2024-03-02T01:54:23;2.67;;;2.33;;
9898;SDS011;4988;49.238;6.698;2024-03-02T01:56:48;5.40;;;2.90;;
9898;SDS011;4988;49.238;6.698;2024-03-02T01:59:13;3.23;;;2.93;;
9898;SDS011;4988;49.238;6.698;2024-03-02T02:01:39;3.57;;;2.60;;
9898;SDS011;4988;49.238;6.698;2024-03-02T02:04:04;3.37;;;2.60;;
9898;SDS011;4988;49.238;6.698;2024-03-02T02:06:31;4.00;;;2.80;;
9898;SDS011;4988;49.238;6.698;2024-03-02T02:08:57;3.30;;;2.33;;
9898;SDS011;4988;49.238;6.698;2024-03-02T02:11:22;4.07;;;2.60;;
9898;SDS011;4988;49.238;6.698;2024-03-02T02:13:48;5.23;;;2.40;;
9898;SDS011;4988;49.238;6.698;2024-03-02T02:16:13;3.57;;;2.30;;
9898;SDS011;4988;49.238;6.698;2024-03-02T02:18:38;2.90;;;2.67;;
9898;SDS011;4988;49.238;6.698;2024-03-02T02:21:04;3.00;;;2.67;;
9898;SDS011;4988;49.238;6.698;2024-03-02T02:23:29;4.00;;;2.97;;
9898;SDS011;4988;49.238;6.698;2024-03-02T02:25:54;4.83;;;2.50;;
9898;SDS011;4988;49.238;6.698;2024-03-02T02:28:20;4.17;;;2.60;;
9898;SDS011;4988;49.238;6.698;2024-03-02T02:30:45;3.50;;;2.70;;
9898;SDS011;4988;49.238;6.698;2024-03-02T02:33:11;3.80;;;3.20;;
9898;SDS011;4988;49.238;6.698;2024-03-02T02:35:36;3.43;;;2.63;;
9898;SDS011;4988;49.238;6.698;2024-03-02T02:38:01;3.13;;;2.70;;
9898;SDS011;4988;49.238;6.698;2024-03-02T02:40:28;3.63;;;2.53;;
9898;SDS011;4988;49.238;6.698;2024-03-02T02:42:56;4.40;;;2.67;;
9898;SDS011;4988;49.238;6.698;2024-03-02T02:45:22;3.57;;;2.60;;
9898;SDS011;4988;49.238;6.698;2024-03-02T02:47:47;3.53;;;2.90;;
9898;SDS011;4988;49.238;6.698;2024-03-02T02:50:13;2.90;;;2.40;;
9898;SDS011;4988;49.238;6.698;2024-03-02T02:52:39;3.47;;;2.30;;
9898;SDS011;4988;49.238;6.698;2024-03-02T02:55:09;4.60;;;3.00;;
9898;SDS011;4988;49.238;6.698;2024-03-02T02:57:36;4.10;;;2.30;;
9898;SDS011;4988;49.238;6.698;2024-03-02T03:02:43;4.23;;;2.67;;
9898;SDS011;4988;49.238;6.698;2024-03-02T03:05:09;4.97;;;2.53;;
9898;SDS011;4988;49.238;6.698;2024-03-02T03:07:36;2.63;;;2.27;;
9898;SDS011;4988;49.238;6.698;2024-03-02T03:10:02;3.17;;;2.80;;
9898;SDS011;4988;49.238;6.698;2024-03-02T03:12:29;4.07;;;2.47;;
9898;SDS011;4988;49.238;6.698;2024-03-02T03:14:55;3.77;;;2.40;;
9898;SDS011;4988;49.238;6.698;2024-03-02T03:17:23;3.07;;;2.77;;
9898;SDS011;4988;49.238;6.698;2024-03-02T03:19:49;5.07;;;2.50;;
9898;SDS011;4988;49.238;6.698;2024-03-02T03:22:14;4.40;;;2.47;;
9898;SDS011;4988;49.238;6.698;2024-03-02T03:24:40;4.27;;;3.07;;
9898;SDS011;4988;49.238;6.698;2024-03-02T03:27:06;2.50;;;2.30;;
9898;SDS011;4988;49.238;6.698;2024-03-02T03:29:31;3.17;;;2.50;;
9898;SDS011;4988;49.238;6.698;2024-03-02T03:31:57;4.23;;;2.57;;
9898;SDS011;4988;49.238;6.698;2024-03-02T03:34:22;2.87;;;2.13;;
9898;SDS011;4988;49.238;6.698;2024-03-02T03:36:47;4.33;;;2.60;;
9898;SDS011;4988;49.238;6.698;2024-03-02T03:39:12;4.30;;;2.50;;
9898;SDS011;4988;49.238;6.698;2024-03-02T03:41:38;3.97;;;2.50;;
9898;SDS011;4988;49.238;6.698;2024-03-02T03:44:05;3.17;;;2.43;;
9898;SDS011;4988;49.238;6.698;2024-03-02T03:46:30;3.97;;;2.43;;
9898;SDS011;4988;49.238;6.698;2024-03-02T03:48:55;3.13;;;2.83;;
9898;SDS011;4988;49.238;6.698;2024-03-02T03:51:21;3.07;;;2.57;;
9898;SDS011;4988;49.238;6.698;2024-03-02T03:53:47;3.57;;;2.40;;
9898;SDS011;4988;49.238;6.698;2024-03-02T03:56:13;3.53;;;2.40;;
9898;SDS011;4988;49.238;6.698;2024-03-02T03:58:38;3.67;;;2.70;;
9898;SDS011;4988;49.238;6.698;2024-03-02T04:01:03;2.73;;;2.40;;
9898;SDS011;4988;49.238;6.698;2024-03-02T04:03:29;3.23;;;2.33;;
9898;SDS011;4988;49.238;6.698;2024-03-02T04:05:55;4.30;;;2.63;;
9898;SDS011;4988;49.238;6.698;2024-03-02T04:08:20;3.43;;;2.50;;
9898;SDS011;4988;49.238;6.698;2024-03-02T04:10:46;5.83;;;2.40;;
9898;SDS011;4988;49.238;6.698;2024-03-02T04:13:11;3.47;;;2.37;;
9898;SDS011;4988;49.238;6.698;2024-03-02T04:15:37;3.07;;;2.37;;
9898;SDS011;4988;49.238;6.698;2024-03-02T04:18:02;2.70;;;2.50;;
9898;SDS011;4988;49.238;6.698;2024-03-02T04:20:28;2.83;;;2.53;;
9898;SDS011;4988;49.238;6.698;2024-03-02T04:22:53;3.90;;;2.47;;
9898;SDS011;4988;49.238;6.698;2024-03-02T04:25:18;4.70;;;2.30;;
9898;SDS011;4988;49.238;6.698;2024-03-02T04:27:44;3.33;;;2.30;;
9898;SDS011;4988;49.238;6.698;2024-03-02T04:30:10;3.73;;;2.60;;
9898;SDS011;4988;49.238;6.698;2024-03-02T04:32:36;4.23;;;2.47;;
9898;SDS011;4988;49.238;6.698;2024-03-02T04:35:01;3.00;;;2.63;;
9898;SDS011;4988;49.238;6.698;2024-03-02T04:37:27;2.77;;;2.40;;
9898;SDS011;4988;49.238;6.698;2024-03-02T04:39:52;3.27;;;2.70;;
9898;SDS011;4988;49.238;6.698;2024-03-02T04:42:17;3.10;;;2.53;;
9898;SDS011;4988;49.238;6.698;2024-03-02T04:44:43;3.53;;;2.90;;
9898;SDS011;4988;49.238;6.698;2024-03-02T04:47:08;2.60;;;2.23;;
9898;SDS011;4988;49.238;6.698;2024-03-02T04:49:33;4.00;;;2.40;;
9898;SDS011;4988;49.238;6.698;2024-03-02T04:51:59;3.33;;;2.57;;
9898;SDS011;4988;49.238;6.698;2024-03-02T04:54:24;2.97;;;2.73;;
9898;SDS011;4988;49.238;6.698;2024-03-02T04:56:50;3.90;;;2.57;;
9898;SDS011;4988;49.238;6.698;2024-03-02T04:59:18;4.17;;;2.40;;
9898;SDS011;4988;49.238;6.698;2024-03-02T05:01:44;4.07;;;2.80;;
9898;SDS011;4988;49.238;6.698;2024-03-02T05:04:09;3.20;;;2.60;;
9898;SDS011;4988;49.238;6.698;2024-03-02T05:06:41;4.03;;;3.50;;
9898;SDS011;4988;49.238;6.698;2024-03-02T05:09:06;3.70;;;2.87;;
9898;SDS011;4988;49.238;6.698;2024-03-02T05:11:32;4.77;;;2.90;;
9898;SDS011;4988;49.238;6.698;2024-03-02T05:14:06;3.43;;;2.93;;
9898;SDS011;4988;49.238;6.698;2024-03-02T05:16:35;4.07;;;3.00;;
9898;SDS011;4988;49.238;6.698;2024-03-02T05:19:03;4.77;;;2.83;;
9898;SDS011;4988;49.238;6.698;2024-03-02T05:21:31;3.97;;;2.97;;
9898;SDS011;4988;49.238;6.698;2024-03-02T05:23:56;3.87;;;2.93;;
9898;SDS011;4988;49.238;6.698;2024-03-02T05:26:22;6.07;;;3.47;;
9898;SDS011;4988;49.238;6.698;2024-03-02T05:28:47;3.30;;;2.60;;
9898;SDS011;4988;49.238;6.698;2024-03-02T05:31:14;5.03;;;3.10;;
9898;SDS011;4988;49.238;6.698;2024-03-02T05:33:40;4.87;;;3.20;;
9898;SDS011;4988;49.238;6.698;2024-03-02T05:36:06;4.13;;;3.10;;
9898;SDS011;4988;49.238;6.698;2024-03-02T05:38:32;5.03;;;3.13;;
9898;SDS011;4988;49.238;6.698;2024-03-02T05:40:57;3.60;;;2.90;;
9898;SDS011;4988;49.238;6.698;2024-03-02T05:43:22;6.23;;;3.00;;
9898;SDS011;4988;49.238;6.698;2024-03-02T05:45:48;3.60;;;2.53;;
9898;SDS011;4988;49.238;6.698;2024-03-02T05:48:14;4.70;;;3.17;;
9898;SDS011;4988;49.238;6.698;2024-03-02T05:50:39;4.50;;;2.77;;
9898;SDS011;4988;49.238;6.698;2024-03-02T05:53:04;5.30;;;3.27;;
9898;SDS011;4988;49.238;6.698;2024-03-02T05:55:30;4.50;;;3.07;;
9898;SDS011;4988;49.238;6.698;2024-03-02T05:57:56;4.33;;;2.93;;
9898;SDS011;4988;49.238;6.698;2024-03-02T06:00:30;4.70;;;2.80;;
9898;SDS011;4988;49.238;6.698;2024-03-02T06:02:56;3.87;;;3.00;;
9898;SDS011;4988;49.238;6.698;2024-03-02T06:05:21;5.27;;;3.07;;
9898;SDS011;4988;49.238;6.698;2024-03-02T06:07:46;14.03;;;6.43;;
9898;SDS011;4988;49.238;6.698;2024-03-02T06:10:12;9.43;;;4.57;;
9898;SDS011;4988;49.238;6.698;2024-03-02T06:12:37;5.47;;;3.13;;
9898;SDS011;4988;49.238;6.698;2024-03-02T06:15:02;3.87;;;3.40;;
9898;SDS011;4988;49.238;6.698;2024-03-02T06:17:28;4.43;;;3.13;;
9898;SDS011;4988;49.238;6.698;2024-03-02T06:19:54;3.73;;;3.00;;
9898;SDS011;4988;49.238;6.698;2024-03-02T06:25:14;4.67;;;2.80;;
9898;SDS011;4988;49.238;6.698;2024-03-02T06:27:40;3.60;;;2.83;;
9898;SDS011;4988;49.238;6.698;2024-03-02T06:30:05;3.93;;;3.10;;
9898;SDS011;4988;49.238;6.698;2024-03-02T06:32:31;4.67;;;3.17;;
9898;SDS011;4988;49.238;6.698;2024-03-02T06:34:56;5.23;;;3.03;;
9898;SDS011;4988;49.238;6.698;2024-03-02T06:37:21;4.57;;;3.00;;
9898;SDS011;4988;49.238;6.698;2024-03-02T06:39:47;4.17;;;2.87;;
9898;SDS011;4988;49.238;6.698;2024-03-02T06:42:12;3.27;;;2.97;;
9898;SDS011;4988;49.238;6.698;2024-03-02T06:44:37;3.20;;;2.90;;
9898;SDS011;4988;49.238;6.698;2024-03-02T06:47:03;6.13;;;2.83;;
9898;SDS011;4988;49.238;6.698;2024-03-02T06:49:29;3.67;;;3.03;;
9898;SDS011;4988;49.238;6.698;2024-03-02T06:51:54;4.63;;;2.77;;
9898;SDS011;4988;49.238;6.698;2024-03-02T06:54:20;4.43;;;3.00;;
9898;SDS011;4988;49.238;6.698;2024-03-02T06:56:45;4.07;;;3.07;;
9898;SDS011;4988;49.238;6.698;2024-03-02T06:59:11;3.83;;;2.90;;
9898;SDS011;4988;49.238;6.698;2024-03-02T07:01:37;7.63;;;3.10;;
9898;SDS011;4988;49.238;6.698;2024-03-02T07:04:02;5.33;;;3.67;;
9898;SDS011;4988;49.238;6.698;2024-03-02T07:06:27;5.03;;;3.30;;
9898;SDS011;4988;49.238;6.698;2024-03-02T07:08:52;4.80;;;3.37;;
9898;SDS011;4988;49.238;6.698;2024-03-02T07:11:18;4.43;;;3.27;;
9898;SDS011;4988;49.238;6.698;2024-03-02T07:13:43;5.00;;;3.00;;
9898;SDS011;4988;49.238;6.698;2024-03-02T07:16:08;5.43;;;3.00;;
9898;SDS011;4988;49.238;6.698;2024-03-02T07:18:54;5.23;;;3.20;;
9898;SDS011;4988;49.238;6.698;2024-03-02T07:21:21;6.97;;;3.30;;
9898;SDS011;4988;49.238;6.698;2024-03-02T07:23:48;6.23;;;3.87;;
9898;SDS011;4988;49.238;6.698;2024-03-02T07:26:13;6.23;;;2.80;;
9898;SDS011;4988;49.238;6.698;2024-03-02T07:28:40;6.00;;;3.20;;
9898;SDS011;4988;49.238;6.698;2024-03-02T07:31:06;5.63;;;2.97;;
9898;SDS011;4988;49.238;6.698;2024-03-02T07:33:32;5.90;;;3.40;;
9898;SDS011;4988;49.238;6.698;2024-03-02T07:35:57;6.43;;;3.40;;
9898;SDS011;4988;49.238;6.698;2024-03-02T07:38:24;6.50;;;3.33;;
9898;SDS011;4988;49.238;6.698;2024-03-02T07:40:50;6.27;;;3.30;;
9898;SDS011;4988;49.238;6.698;2024-03-02T07:43:16;6.10;;;3.10;;
9898;SDS011;4988;49.238;6.698;2024-03-02T07:45:42;7.73;;;3.80;;
9898;SDS011;4988;49.238;6.698;2024-03-02T07:48:07;6.20;;;3.43;;
9898;SDS011;4988;49.238;6.698;2024-03-02T07:50:33;7.93;;;3.93;;
9898;SDS011;4988;49.238;6.698;2024-03-02T07:53:00;8.43;;;3.93;;
9898;SDS011;4988;49.238;6.698;2024-03-02T07:55:28;5.57;;;3.80;;
9898;SDS011;4988;49.238;6.698;2024-03-02T07:57:54;6.73;;;4.03;;
9898;SDS011;4988;49.238;6.698;2024-03-02T08:00:20;5.03;;;3.50;;
9898;SDS011;4988;49.238;6.698;2024-03-02T08:02:45;7.73;;;3.77;;
9898;SDS011;4988;49.238;6.698;2024-03-02T08:05:11;5.83;;;3.77;;
9898;SDS011;4988;49.238;6.698;2024-03-02T08:07:36;6.33;;;3.63;;
9898;SDS011;4988;49.238;6.698;2024-03-02T08:10:02;5.07;;;3.57;;
9898;SDS011;4988;49.238;6.698;2024-03-02T08:12:28;6.97;;;4.10;;
9898;SDS011;4988;49.238;6.698;2024-03-02T08:14:53;5.93;;;3.87;;
9898;SDS011;4988;49.238;6.698;2024-03-02T08:17:18;5.60;;;3.50;;
9898;SDS011;4988;49.238;6.698;2024-03-02T08:19:44;5.27;;;3.97;;
9898;SDS011;4988;49.238;6.698;2024-03-02T08:22:09;4.07;;;3.10;;
9898;SDS011;4988;49.238;6.698;2024-03-02T08:24:35;5.60;;;3.50;;
9898;SDS011;4988;49.238;6.698;2024-03-02T08:27:01;5.30;;;3.50;;
9898;SDS011;4988;49.238;6.698;2024-03-02T08:29:26;6.23;;;3.30;;
9898;SDS011;4988;49.238;6.698;2024-03-02T08:31:52;4.07;;;3.10;;
9898;SDS011;4988;49.238;6.698;2024-03-02T08:34:18;5.37;;;3.30;;
9898;SDS011;4988;49.238;6.698;2024-03-02T08:36:43;4.70;;;3.40;;
9898;SDS011;4988;49.238;6.698;2024-03-02T08:39:08;4.63;;;2.80;;
9898;SDS011;4988;49.238;6.698;2024-03-02T08:41:41;4.73;;;3.20;;
9898;SDS011;4988;49.238;6.698;2024-03-02T08:44:08;6.50;;;3.23;;
9898;SDS011;4988;49.238;6.698;2024-03-02T08:46:33;6.00;;;3.50;;
9898;SDS011;4988;49.238;6.698;2024-03-02T08:48:59;7.33;;;3.47;;
9898;SDS011;4988;49.238;6.698;2024-03-02T08:51:24;5.13;;;3.53;;
9898;SDS011;4988;49.238;6.698;2024-03-02T08:53:50;5.53;;;3.53;;
9898;SDS011;4988;49.238;6.698;2024-03-02T08:56:15;9.07;;;3.63;;
9898;SDS011;4988;49.238;6.698;2024-03-02T08:58:41;6.10;;;3.77;;
9898;SDS011;4988;49.238;6.698;2024-03-02T09:01:06;6.37;;;3.40;;
9898;SDS011;4988;49.238;6.698;2024-03-02T09:03:33;6.50;;;3.77;;
9898;SDS011;4988;49.238;6.698;2024-03-02T09:05:59;4.73;;;3.40;;
9898;SDS011;4988;49.238;6.698;2024-03-02T09:08:25;6.47;;;3.63;;
9898;SDS011;4988;49.238;6.698;2024-03-02T09:10:50;4.33;;;3.30;;
9898;SDS011;4988;49.238;6.698;2024-03-02T09:13:16;6.27;;;3.50;;
9898;SDS011;4988;49.238;6.698;2024-03-02T09:15:41;5.37;;;3.13;;
9898;SDS011;4988;49.238;6.698;2024-03-02T09:18:07;4.57;;;3.10;;
9898;SDS011;4988;49.238;6.698;2024-03-02T09:20:32;6.30;;;3.00;;
9898;SDS011;4988;49.238;6.698;2024-03-02T09:22:58;5.43;;;3.20;;
9898;SDS011;4988;49.238;6.698;2024-03-02T09:25:23;5.07;;;3.37;;
9898;SDS011;4988;49.238;6.698;2024-03-02T09:27:48;4.67;;;3.30;;
9898;SDS011;4988;49.238;6.698;2024-03-02T09:30:13;4.93;;;3.10;;
9898;SDS011;4988;49.238;6.698;2024-03-02T09:32:39;5.23;;;3.20;;
9898;SDS011;4988;49.238;6.698;2024-03-02T09:35:04;3.57;;;3.00;;
9898;SDS011;4988;49.238;6.698;2024-03-02T09:37:30;4.63;;;3.37;;
9898;SDS011;4988;49.238;6.698;2024-03-02T09:39:56;6.13;;;3.53;;
9898;SDS011;4988;49.238;6.698;2024-03-02T09:42:21;5.97;;;3.07;;
9898;SDS011;4988;49.238;6.698;2024-03-02T09:44:47;6.33;;;2.87;;
9898;SDS011;4988;49.238;6.698;2024-03-02T09:47:13;5.33;;;3.20;;
9898;SDS011;4988;49.238;6.698;2024-03-02T09:49:38;4.43;;;2.90;;
9898;SDS011;4988;49.238;6.698;2024-03-02T09:52:05;5.57;;;3.20;;
9898;SDS011;4988;49.238;6.698;2024-03-02T09:54:31;4.87;;;3.23;;
9898;SDS011;4988;49.238;6.698;2024-03-02T09:56:57;3.83;;;3.00;;
9898;SDS011;4988;49.238;6.698;2024-03-02T09:59:22;3.70;;;2.63;;
9898;SDS011;4988;49.238;6.698;2024-03-02T10:01:57;3.57;;;2.70;;
9898;SDS011;4988;49.238;6.698;2024-03-02T10:04:27;5.53;;;2.60;;
9898;SDS011;4988;49.238;6.698;2024-03-02T10:09:36;4.93;;;3.00;;
9898;SDS011;4988;49.238;6.698;2024-03-02T10:12:05;4.73;;;3.53;;
9898;SDS011;4988;49.238;6.698;2024-03-02T10:14:32;3.23;;;2.93;;
9898;SDS011;4988;49.238;6.698;2024-03-02T10:17:10;3.57;;;2.67;;
9898;SDS011;4988;49.238;6.698;2024-03-02T10:19:37;6.17;;;3.57;;
9898;SDS011;4988;49.238;6.698;2024-03-02T10:22:04;3.70;;;2.77;;
9898;SDS011;4988;49.238;6.698;2024-03-02T10:24:37;5.10;;;2.70;;
9898;SDS011;4988;49.238;6.698;2024-03-02T10:27:14;3.27;;;2.80;;
9898;SDS011;4988;49.238;6.698;2024-03-02T10:29:45;2.93;;;2.47;;
9898;SDS011;4988;49.238;6.698;2024-03-02T10:32:12;5.70;;;2.53;;
9898;SDS011;4988;49.238;6.698;2024-03-02T10:34:39;3.30;;;2.40;;
9898;SDS011;4988;49.238;6.698;2024-03-02T10:37:05;2.63;;;2.10;;
9898;SDS011;4988;49.238;6.698;2024-03-02T10:39:32;2.90;;;2.20;;
9898;SDS011;4988;49.238;6.698;2024-03-02T10:42:00;2.83;;;2.00;;
9898;SDS011;4988;49.238;6.698;2024-03-02T10:44:28;2.60;;;2.20;;
9898;SDS011;4988;49.238;6.698;2024-03-02T10:46:55;3.10;;;2.30;;
9898;SDS011;4988;49.238;6.698;2024-03-02T10:49:21;2.90;;;2.20;;
9898;SDS011;4988;49.238;6.698;2024-03-02T10:51:49;3.30;;;2.00;;
9898;SDS011;4988;49.238;6.698;2024-03-02T10:54:14;2.73;;;2.20;;
9898;SDS011;4988;49.238;6.698;2024-03-02T10:56:41;4.70;;;2.20;;
9898;SDS011;4988;49.238;6.698;2024-03-02T11:01:50;2.33;;;1.93;;
9898;SDS011;4988;49.238;6.698;2024-03-02T11:04:16;1.80;;;1.70;;
9898;SDS011;4988;49.238;6.698;2024-03-02T11:06:45;2.63;;;1.90;;
9898;SDS011;4988;49.238;6.698;2024-03-02T11:09:13;1.97;;;1.87;;
9898;SDS011;4988;49.238;6.698;2024-03-02T11:11:42;2.03;;;1.70;;
9898;SDS011;4988;49.238;6.698;2024-03-02T11:14:11;2.53;;;2.20;;
9898;SDS011;4988;49.238;6.698;2024-03-02T11:16:41;2.47;;;1.77;;
9898;SDS011;4988;49.238;6.698;2024-03-02T11:19:10;2.40;;;2.10;;
9898;SDS011;4988;49.238;6.698;2024-03-02T11:21:36;2.27;;;1.80;;
9898;SDS011;4988;49.238;6.698;2024-03-02T11:26:47;2.20;;;2.00;;
9898;SDS011;4988;49.238;6.698;2024-03-02T11:32:00;2.50;;;1.80;;
9898;SDS011;4988;49.238;6.698;2024-03-02T11:34:32;1.77;;;1.67;;
9898;SDS011;4988;49.238;6.698;2024-03-02T11:36:59;3.97;;;2.40;;
9898;SDS011;4988;49.238;6.698;2024-03-02T11:39:26;2.80;;;2.20;;
9898;SDS011;4988;49.238;6.698;2024-03-02T11:41:53;3.47;;;2.83;;
9898;SDS011;4988;49.238;6.698;2024-03-02T11:44:18;5.77;;;2.00;;
9898;SDS011;4988;49.238;6.698;2024-03-02T11:49:38;2.40;;;2.10;;
9898;SDS011;4988;49.238;6.698;2024-03-02T11:52:06;2.33;;;1.80;;
9898;SDS011;4988;49.238;6.698;2024-03-02T11:54:32;2.73;;;2.13;;
9898;SDS011;4988;49.238;6.698;2024-03-02T11:57:02;3.67;;;1.93;;
9898;SDS011;4988;49.238;6.698;2024-03-02T11:59:31;2.00;;;1.80;;
9898;SDS011;4988;49.238;6.698;2024-03-02T12:01:56;2.20;;;1.80;;
9898;SDS011;4988;49.238;6.698;2024-03-02T12:04:23;2.67;;;1.80;;
9898;SDS011;4988;49.238;6.698;2024-03-02T12:06:54;1.70;;;1.60;;
9898;SDS011;4988;49.238;6.698;2024-03-02T12:09:29;8.57;;;2.47;;
9898;SDS011;4988;49.238;6.698;2024-03-02T12:12:01;2.20;;;2.10;;
9898;SDS011;4988;49.238;6.698;2024-03-02T12:14:33;2.43;;;2.10;;
9898;SDS011;4988;49.238;6.698;2024-03-02T12:17:00;2.10;;;1.90;;
9898;SDS011;4988;49.238;6.698;2024-03-02T12:19:27;2.67;;;2.40;;
9898;SDS011;4988;49.238;6.698;2024-03-02T12:21:54;3.37;;;1.90;;
9898;SDS011;4988;49.238;6.698;2024-03-02T12:24:21;4.47;;;2.47;;
9898;SDS011;4988;49.238;6.698;2024-03-02T12:26:47;3.17;;;2.13;;
9898;SDS011;4988;49.238;6.698;2024-03-02T12:29:14;3.93;;;2.87;;
9898;SDS011;4988;49.238;6.698;2024-03-02T12:31:40;3.90;;;2.60;;
9898;SDS011;4988;49.238;6.698;2024-03-02T12:34:06;2.07;;;1.83;;
9898;SDS011;4988;49.238;6.698;2024-03-02T12:36:39;3.80;;;2.50;;
9898;SDS011;4988;49.238;6.698;2024-03-02T12:39:06;4.97;;;3.03;;
9898;SDS011;4988;49.238;6.698;2024-03-02T12:41:33;3.97;;;2.70;;
9898;SDS011;4988;49.238;6.698;2024-03-02T12:44:04;4.40;;;2.93;;
9898;SDS011;4988;49.238;6.698;2024-03-02T12:46:30;3.53;;;2.73;;
9898;SDS011;4988;49.238;6.698;2024-03-02T12:48:56;3.10;;;2.03;;
9898;SDS011;4988;49.238;6.698;2024-03-02T12:51:21;3.20;;;2.60;;
9898;SDS011;4988;49.238;6.698;2024-03-02T12:53:54;2.40;;;2.20;;
9898;SDS011;4988;49.238;6.698;2024-03-02T12:56:20;4.30;;;2.70;;
9898;SDS011;4988;49.238;6.698;2024-03-02T12:58:46;6.47;;;3.13;;
9898;SDS011;4988;49.238;6.698;2024-03-02T13:01:14;4.00;;;2.63;;
9898;SDS011;4988;49.238;6.698;2024-03-02T13:03:40;3.77;;;2.50;;
9898;SDS011;4988;49.238;6.698;2024-03-02T13:06:06;5.57;;;2.87;;
9898;SDS011;4988;49.238;6.698;2024-03-02T13:08:32;3.60;;;2.10;;
9898;SDS011;4988;49.238;6.698;2024-03-02T13:10:58;1.80;;;1.70;;
9898;SDS011;4988;49.238;6.698;2024-03-02T13:13:24;3.43;;;2.03;;
9898;SDS011;4988;49.238;6.698;2024-03-02T13:15:49;2.10;;;1.90;;
9898;SDS011;4988;49.238;6.698;2024-03-02T13:18:17;2.10;;;1.90;;
9898;SDS011;4988;49.238;6.698;2024-03-02T13:20:43;3.23;;;2.07;;
9898;SDS011;4988;49.238;6.698;2024-03-02T13:23:08;2.53;;;2.23;;
9898;SDS011;4988;49.238;6.698;2024-03-02T13:25:34;2.20;;;2.00;;
9898;SDS011;4988;49.238;6.698;2024-03-02T13:27:59;3.13;;;2.17;;
9898;SDS011;4988;49.238;6.698;2024-03-02T13:30:25;3.60;;;2.17;;
9898;SDS011;4988;49.238;6.698;2024-03-02T13:32:50;2.30;;;2.00;;
9898;SDS011;4988;49.238;6.698;2024-03-02T13:35:16;2.43;;;2.17;;
9898;SDS011;4988;49.238;6.698;2024-03-02T13:37:41;4.37;;;2.50;;
9898;SDS011;4988;49.238;6.698;2024-03-02T13:40:07;2.33;;;2.13;;
9898;SDS011;4988;49.238;6.698;2024-03-02T13:42:38;4.80;;;2.40;;
9898;SDS011;4988;49.238;6.698;2024-03-02T13:45:04;2.97;;;2.27;;
9898;SDS011;4988;49.238;6.698;2024-03-02T13:47:30;2.30;;;2.10;;
9898;SDS011;4988;49.238;6.698;2024-03-02T13:49:56;2.33;;;2.10;;
9898;SDS011;4988;49.238;6.698;2024-03-02T13:52:22;2.47;;;2.23;;
9898;SDS011;4988;49.238;6.698;2024-03-02T13:54:48;2.87;;;2.40;;
9898;SDS011;4988;49.238;6.698;2024-03-02T13:57:40;2.47;;;2.20;;
9898;SDS011;4988;49.238;6.698;2024-03-02T14:00:06;3.87;;;2.30;;
9898;SDS011;4988;49.238;6.698;2024-03-02T14:02:35;2.20;;;2.00;;
9898;SDS011;4988;49.238;6.698;2024-03-02T14:05:01;3.70;;;2.27;;
9898;SDS011;4988;49.238;6.698;2024-03-02T14:07:26;3.50;;;2.50;;
9898;SDS011;4988;49.238;6.698;2024-03-02T14:09:51;3.77;;;2.33;;
9898;SDS011;4988;49.238;6.698;2024-03-02T14:12:17;4.70;;;2.80;;
9898;SDS011;4988;49.238;6.698;2024-03-02T14:14:42;3.70;;;2.60;;
9898;SDS011;4988;49.238;6.698;2024-03-02T14:17:07;3.43;;;2.60;;
9898;SDS011;4988;49.238;6.698;2024-03-02T14:19:39;3.53;;;2.67;;
9898;SDS011;4988;49.238;6.698;2024-03-02T14:22:04;2.40;;;2.20;;
9898;SDS011;4988;49.238;6.698;2024-03-02T14:24:30;3.63;;;2.60;;
9898;SDS011;4988;49.238;6.698;2024-03-02T14:26:55;4.83;;;2.60;;
9898;SDS011;4988;49.238;6.698;2024-03-02T14:29:22;3.40;;;2.60;;
9898;SDS011;4988;49.238;6.698;2024-03-02T14:31:47;4.00;;;2.83;;
9898;SDS011;4988;49.238;6.698;2024-03-02T14:34:13;4.80;;;2.70;;
9898;SDS011;4988;49.238;6.698;2024-03-02T14:36:40;5.43;;;3.27;;
9898;SDS011;4988;49.238;6.698;2024-03-02T14:39:07;7.57;;;4.37;;
9898;SDS011;4988;49.238;6.698;2024-03-02T14:41:35;7.53;;;4.10;;
9898;SDS011;4988;49.238;6.698;2024-03-02T14:44:01;5.37;;;3.40;;
9898;SDS011;4988;49.238;6.698;2024-03-02T14:46:26;4.70;;;3.30;;
9898;SDS011;4988;49.238;6.698;2024-03-02T14:48:51;4.13;;;2.90;;
9898;SDS011;4988;49.238;6.698;2024-03-02T14:51:17;3.47;;;2.70;;
9898;SDS011;4988;49.238;6.698;2024-03-02T14:53:42;4.17;;;3.10;;
9898;SDS011;4988;49.238;6.698;2024-03-02T14:56:07;4.47;;;2.97;;
9898;SDS011;4988;49.238;6.698;2024-03-02T14:58:33;3.87;;;2.80;;
9898;SDS011;4988;49.238;6.698;2024-03-02T15:01:00;3.00;;;2.70;;
9898;SDS011;4988;49.238;6.698;2024-03-02T15:03:25;4.87;;;3.20;;
9898;SDS011;4988;49.238;6.698;2024-03-02T15:05:51;4.50;;;2.80;;
9898;SDS011;4988;49.238;6.698;2024-03-02T15:08:17;3.83;;;2.87;;
9898;SDS011;4988;49.238;6.698;2024-03-02T15:10:42;3.73;;;2.70;;
9898;SDS011;4988;49.238;6.698;2024-03-02T15:13:08;4.80;;;2.70;;
9898;SDS011;4988;49.238;6.698;2024-03-02T15:15:33;3.50;;;3.00;;
9898;SDS011;4988;49.238;6.698;2024-03-02T15:17:58;3.77;;;2.63;;
9898;SDS011;4988;49.238;6.698;2024-03-02T15:20:24;4.17;;;2.70;;
9898;SDS011;4988;49.238;6.698;2024-03-02T15:22:49;3.17;;;2.87;;
9898;SDS011;4988;49.238;6.698;2024-03-02T15:25:14;2.70;;;2.50;;
9898;SDS011;4988;49.238;6.698;2024-03-02T15:27:41;4.07;;;2.67;;
9898;SDS011;4988;49.238;6.698;2024-03-02T15:30:07;3.13;;;2.70;;
9898;SDS011;4988;49.238;6.698;2024-03-02T15:32:33;5.30;;;3.00;;
9898;SDS011;4988;49.238;6.698;2024-03-02T15:34:59;3.83;;;2.73;;